Rejestracja

Wszystkie dane podawane są w czasie UTC za wyjątkiem miejsc gdzie jest jednoznacznie podane, że jest inaczej. Dane podawane w serwisie mają charakter informacyjny!!!
Informacje w sprawie dostępu do serwisu pod numerem tel. +48 261-828-559 lub +48 261-828-138
Informacja dla żołnierzy i pracowników wojska: Prosimy o niezwłoczną zmianę adresu e-mail w profilu użytkownika na pocztę w domenie @ron.mil.pl
Brak służbowego adresu e-mail skutkuje usunięciem konta.

Aktualna Pogoda
 
Pogoda w Polsce
23°C Szczecin 14°C Suwałki 20°C Warszawa 23°C Poznan
21°C Opole 21°C Kraków 18°C Rzeszów
Więcej miast w Polsce

Pogoda w Europie
26°C Berlin 20°C Paryz 24°C Bruksela 7°C Oslo
23°C Praga 23°C Zagrzeb
Więcej miast w Europie

Metary wojskowe test
METAR EPBC 091700Z AUTO 15006KT CAVOK 20/02 Q1015=
METAR EPCE 091700Z 17008KT 120V200 CAVOK 20/06 Q1011 RMK 196 041 0/0=
METAR EPDA 091700Z 19010KT 150V230 CAVOK 22/07 Q1009 RMK 220 038 2/2=
METAR EPDE 091700Z 14006KT CAVOK 19/01 Q1017 RMK 190 030 3/3=
METAR EPIR 091700Z 14008KT CAVOK 20/08 Q1012 RMK 196 048 5/5=
METAR EPKS 091700Z 14009KT CAVOK 22/06 Q1011 RMK 222 035 6/6=
METAR EPLK 091700Z 20008KT CAVOK 21/06 Q1014 RMK 205 039 3/3=
METAR EPLY 091700Z 18006KT CAVOK 21/08 Q1013 RMK 206 043 3/3=
METAR EPMB 091700Z AUTO 16008KT 120V190 9999 ////// 18/09 Q1013 RMK 182 055 ///=
METAR EPMI 091700Z 16010KT 120V220 CAVOK 22/06 Q1010 RMK 223 034 3/3=
METAR EPMM 091700Z 18008KT 150V220 CAVOK 18/01 Q1017 RMK 176 033 2/2=
METAR EPOK 091700Z 15013KT 9999 BKN254 18/07 Q1011 RMK 176 049 6/6=
METAR EPPR 091700Z 14008KT CAVOK 20/06 Q1012 RMK 195 042 4/4=
METAR EPPW 091700Z 18010KT CAVOK 20/07 Q1012 RMK 200 043 3/3=
METAR EPSN 091700Z 19007KT 160V220 CAVOK 21/06 Q1009 RMK 209 038 4/4=
METAR EPTM 091700Z 14008KT CAVOK 20/04 Q1015 RMK 199 034 2/2=


 

Prawa autorskie©2007 SSH SZ RP. Wszelkie prawa zastrzeżone.